Time,TemperatureF,DewpointF,PressureIn,WindDirection,WindDirectionDegrees,WindSpeedMPH,WindSpeedGustMPH,Humidity,HourlyPrecipIn,Conditions,Clouds,dailyrainin,SolarRadiationWatts/m^2,SoftwareType,DateUTC
2013-03-26 00:03:00,59.0,44.0,-100.00,WNW,301,9.0,12.0,57,0.00,,,0.00,0.000000,,2013-03-26 04:03:00,
2013-03-26 00:13:00,59.0,44.0,-100.00,WNW,301,9.0,12.0,57,0.00,,,0.00,0.000000,,2013-03-26 04:13:00,
2013-03-26 00:23:00,59.0,44.0,-100.00,WNW,301,9.0,12.0,57,0.00,,,0.00,0.000000,,2013-03-26 04:23:00,
2013-03-26 00:32:00,58.0,43.0,-100.00,WNW,298,9.0,13.0,57,0.00,,,0.00,0.000000,,2013-03-26 04:32:00,
2013-03-26 00:53:00,58.0,43.0,-100.00,WNW,298,9.0,13.0,57,0.00,,,0.00,0.000000,,2013-03-26 04:53:00,
2013-03-26 01:02:00,58.0,43.0,-100.00,WNW,298,9.0,13.0,57,0.00,,,0.00,0.000000,,2013-03-26 05:02:00,
2013-03-26 01:12:00,58.0,43.0,-100.00,WNW,298,9.0,13.0,57,0.00,,,0.00,0.000000,,2013-03-26 05:12:00,
2013-03-26 01:22:00,58.0,43.0,-100.00,WNW,298,9.0,13.0,57,0.00,,,0.00,0.000000,,2013-03-26 05:22:00,
2013-03-26 01:32:00,57.0,44.0,-100.00,NW,308,11.0,19.0,62,0.00,,,0.00,0.000000,,2013-03-26 05:32:00,
2013-03-26 01:52:00,57.0,44.0,-100.00,NW,308,11.0,19.0,62,0.00,,,0.00,0.000000,,2013-03-26 05:52:00,
2013-03-26 02:02:00,57.0,44.0,-100.00,NW,308,11.0,19.0,62,0.00,,,0.00,0.000000,,2013-03-26 06:02:00,
2013-03-26 02:12:00,57.0,44.0,-100.00,NW,308,11.0,19.0,62,0.00,,,0.00,0.000000,,2013-03-26 06:12:00,
2013-03-26 02:22:00,57.0,44.0,-100.00,NW,308,11.0,19.0,62,0.00,,,0.00,0.000000,,2013-03-26 06:22:00,
2013-03-26 02:32:00,57.0,46.0,-100.00,NW,322,10.0,17.0,67,0.00,,,0.00,0.000000,,2013-03-26 06:32:00,
2013-03-26 02:53:00,57.0,46.0,-100.00,NW,322,10.0,17.0,67,0.00,,,0.00,0.000000,,2013-03-26 06:53:00,
2013-03-26 03:02:00,57.0,46.0,-100.00,NW,322,10.0,17.0,67,0.00,,,0.00,0.000000,,2013-03-26 07:02:00,
2013-03-26 03:12:00,57.0,46.0,-100.00,NW,322,10.0,17.0,67,0.00,,,0.00,0.000000,,2013-03-26 07:12:00,
2013-03-26 03:22:00,57.0,46.0,-100.00,NW,322,10.0,17.0,67,0.00,,,0.00,0.000000,,2013-03-26 07:22:00,
2013-03-26 03:32:00,56.0,45.0,-100.00,NNW,333,12.0,19.0,66,0.00,,,0.00,0.000000,,2013-03-26 07:32:00,
2013-03-26 03:53:00,56.0,45.0,-100.00,NNW,333,12.0,19.0,66,0.00,,,0.00,0.000000,,2013-03-26 07:53:00,
2013-03-26 04:02:00,56.0,45.0,-100.00,NNW,333,12.0,19.0,66,0.00,,,0.00,0.000000,,2013-03-26 08:02:00,
2013-03-26 04:13:00,56.0,45.0,-100.00,NNW,333,12.0,19.0,66,0.00,,,0.00,0.000000,,2013-03-26 08:13:00,
2013-03-26 04:22:00,56.0,45.0,-100.00,NNW,333,12.0,19.0,66,0.00,,,0.00,0.000000,,2013-03-26 08:22:00,
2013-03-26 04:32:00,56.0,45.0,-100.00,NNW,329,10.0,18.0,66,0.00,,,0.00,0.000000,,2013-03-26 08:32:00,
2013-03-26 04:52:00,56.0,45.0,-100.00,NNW,329,10.0,18.0,66,0.00,,,0.00,0.000000,,2013-03-26 08:52:00,
2013-03-26 05:02:00,56.0,45.0,-100.00,NNW,329,10.0,18.0,66,0.00,,,0.00,0.000000,,2013-03-26 09:02:00,
2013-03-26 05:12:00,56.0,45.0,-100.00,NNW,329,10.0,18.0,66,0.00,,,0.00,0.000000,,2013-03-26 09:12:00,
2013-03-26 05:22:00,56.0,45.0,-100.00,NNW,329,10.0,18.0,66,0.00,,,0.00,0.000000,,2013-03-26 09:22:00,
2013-03-26 05:32:00,56.0,46.0,-100.00,NNW,338,9.0,17.0,69,0.00,,,0.00,0.000000,,2013-03-26 09:32:00,
2013-03-26 05:52:00,56.0,46.0,-100.00,NNW,338,9.0,17.0,69,0.00,,,0.00,0.000000,,2013-03-26 09:52:00,
2013-03-26 06:03:00,56.0,46.0,-100.00,NNW,338,9.0,17.0,69,0.00,,,0.00,0.000000,,2013-03-26 10:03:00,
2013-03-26 06:12:00,56.0,46.0,-100.00,NNW,338,9.0,17.0,69,0.00,,,0.00,0.000000,,2013-03-26 10:12:00,
2013-03-26 06:23:00,56.0,46.0,-100.00,NNW,338,9.0,17.0,69,0.00,,,0.00,0.000000,,2013-03-26 10:23:00,
2013-03-26 06:32:00,55.0,44.0,-100.00,NNW,343,13.0,23.0,67,0.00,,,0.00,0.000000,,2013-03-26 10:32:00,
2013-03-26 06:53:00,55.0,44.0,-100.00,NNW,343,13.0,23.0,67,0.00,,,0.00,0.000000,,2013-03-26 10:53:00,
2013-03-26 07:03:00,55.0,44.0,-100.00,NNW,343,13.0,23.0,67,0.00,,,0.00,0.000000,,2013-03-26 11:03:00,
2013-03-26 07:12:00,55.0,44.0,-100.00,NNW,343,13.0,23.0,67,0.00,,,0.00,0.000000,,2013-03-26 11:12:00,
2013-03-26 07:22:00,55.0,44.0,-100.00,NNW,343,13.0,23.0,67,0.00,,,0.00,0.000000,,2013-03-26 11:22:00,
2013-03-26 07:32:00,54.0,43.0,-100.00,NNW,348,9.0,20.0,66,0.00,,,0.00,2.000000,,2013-03-26 11:32:00,
2013-03-26 07:52:00,54.0,43.0,-100.00,NNW,348,9.0,20.0,66,0.00,,,0.00,2.000000,,2013-03-26 11:52:00,
2013-03-26 08:03:00,54.0,43.0,-100.00,NNW,348,9.0,20.0,66,0.00,,,0.00,2.000000,,2013-03-26 12:03:00,
2013-03-26 08:12:00,54.0,43.0,-100.00,NNW,348,9.0,20.0,66,0.00,,,0.00,2.000000,,2013-03-26 12:12:00,
2013-03-26 08:22:00,54.0,43.0,-100.00,NNW,348,9.0,20.0,66,0.00,,,0.00,2.000000,,2013-03-26 12:22:00,
2013-03-26 08:32:00,55.0,40.0,-100.00,North,355,11.0,17.0,57,0.00,,,0.00,70.000000,,2013-03-26 12:32:00,
2013-03-26 08:52:00,55.0,40.0,-100.00,North,355,11.0,17.0,57,0.00,,,0.00,70.000000,,2013-03-26 12:52:00,
2013-03-26 09:03:00,55.0,40.0,-100.00,North,355,11.0,17.0,57,0.00,,,0.00,70.000000,,2013-03-26 13:03:00,
2013-03-26 09:12:00,55.0,40.0,-100.00,North,355,11.0,17.0,57,0.00,,,0.00,70.000000,,2013-03-26 13:12:00,
2013-03-26 09:23:00,55.0,40.0,-100.00,North,355,11.0,17.0,57,0.00,,,0.00,70.000000,,2013-03-26 13:23:00,
2013-03-26 09:32:00,58.0,35.0,-100.00,North,358,14.0,21.0,42,0.00,,,0.00,302.000000,,2013-03-26 13:32:00,
2013-03-26 09:52:00,58.0,35.0,-100.00,North,358,14.0,21.0,42,0.00,,,0.00,302.000000,,2013-03-26 13:52:00,
2013-03-26 10:02:00,58.0,35.0,-100.00,North,358,14.0,21.0,42,0.00,,,0.00,302.000000,,2013-03-26 14:02:00,
2013-03-26 10:12:00,58.0,35.0,-100.00,North,358,14.0,21.0,42,0.00,,,0.00,302.000000,,2013-03-26 14:12:00,
2013-03-26 10:23:00,58.0,35.0,-100.00,North,358,14.0,21.0,42,0.00,,,0.00,302.000000,,2013-03-26 14:23:00,
2013-03-26 10:32:00,60.0,32.0,-100.00,NNW,341,18.0,26.0,34,0.00,,,0.00,511.000000,,2013-03-26 14:32:00,
2013-03-26 10:53:00,60.0,32.0,-100.00,NNW,341,18.0,26.0,34,0.00,,,0.00,511.000000,,2013-03-26 14:53:00,
2013-03-26 11:02:00,60.0,32.0,-100.00,NNW,341,18.0,26.0,34,0.00,,,0.00,511.000000,,2013-03-26 15:02:00,
2013-03-26 11:12:00,60.0,32.0,-100.00,NNW,341,18.0,26.0,34,0.00,,,0.00,511.000000,,2013-03-26 15:12:00,
2013-03-26 11:22:00,60.0,32.0,-100.00,NNW,341,18.0,26.0,34,0.00,,,0.00,511.000000,,2013-03-26 15:22:00,
2013-03-26 11:32:00,60.0,37.0,-100.00,NNW,341,15.0,25.0,42,0.00,,,0.00,678.000000,,2013-03-26 15:32:00,
2013-03-26 11:53:00,60.0,37.0,-100.00,NNW,341,15.0,25.0,42,0.00,,,0.00,678.000000,,2013-03-26 15:53:00,
2013-03-26 12:03:00,60.0,37.0,-100.00,NNW,341,15.0,25.0,42,0.00,,,0.00,678.000000,,2013-03-26 16:03:00,
2013-03-26 12:13:00,60.0,37.0,-100.00,NNW,341,15.0,25.0,42,0.00,,,0.00,678.000000,,2013-03-26 16:13:00,
2013-03-26 12:23:00,60.0,37.0,-100.00,NNW,341,15.0,25.0,42,0.00,,,0.00,678.000000,,2013-03-26 16:23:00,
2013-03-26 12:32:00,63.0,38.0,-100.00,NNW,329,14.0,23.0,39,0.00,,,0.00,802.000000,,2013-03-26 16:32:00,
2013-03-26 12:54:00,63.0,38.0,-100.00,NNW,329,14.0,23.0,39,0.00,,,0.00,802.000000,,2013-03-26 16:54:00,
2013-03-26 13:03:00,63.0,38.0,-100.00,NNW,329,14.0,23.0,39,0.00,,,0.00,802.000000,,2013-03-26 17:03:00,
2013-03-26 13:12:00,63.0,38.0,-100.00,NNW,329,14.0,23.0,39,0.00,,,0.00,802.000000,,2013-03-26 17:12:00,
2013-03-26 13:23:00,63.0,38.0,-100.00,NNW,329,14.0,23.0,39,0.00,,,0.00,802.000000,,2013-03-26 17:23:00,
2013-03-26 13:32:00,62.0,36.0,-100.00,NW,315,15.0,23.0,38,0.00,,,0.00,874.000000,,2013-03-26 17:32:00,
2013-03-26 13:53:00,62.0,36.0,-100.00,NW,315,15.0,23.0,38,0.00,,,0.00,874.000000,,2013-03-26 17:53:00,
2013-03-26 14:03:00,62.0,36.0,-100.00,NW,315,15.0,23.0,38,0.00,,,0.00,874.000000,,2013-03-26 18:03:00,
2013-03-26 14:12:00,62.0,36.0,-100.00,NW,315,15.0,23.0,38,0.00,,,0.00,874.000000,,2013-03-26 18:12:00,
2013-03-26 14:23:00,62.0,36.0,-100.00,NW,315,15.0,23.0,38,0.00,,,0.00,874.000000,,2013-03-26 18:23:00,
2013-03-26 14:32:00,64.0,37.0,-100.00,NW,321,16.0,23.0,36,0.00,,,0.00,853.000000,,2013-03-26 18:32:00,
2013-03-26 14:53:00,64.0,37.0,-100.00,NW,321,16.0,23.0,36,0.00,,,0.00,853.000000,,2013-03-26 18:53:00,
2013-03-26 15:03:00,64.0,37.0,-100.00,NW,321,16.0,23.0,36,0.00,,,0.00,853.000000,,2013-03-26 19:03:00,
2013-03-26 15:12:00,64.0,37.0,-100.00,NW,321,16.0,23.0,36,0.00,,,0.00,853.000000,,2013-03-26 19:12:00,
2013-03-26 15:22:00,64.0,37.0,-100.00,NW,321,16.0,23.0,36,0.00,,,0.00,853.000000,,2013-03-26 19:22:00,
2013-03-26 15:32:00,64.0,35.0,-100.00,NW,312,15.0,25.0,34,0.00,,,0.00,785.000000,,2013-03-26 19:32:00,
2013-03-26 15:53:00,64.0,35.0,-100.00,NW,312,15.0,25.0,34,0.00,,,0.00,785.000000,,2013-03-26 19:53:00,
2013-03-26 16:02:00,64.0,35.0,-100.00,NW,312,15.0,25.0,34,0.00,,,0.00,785.000000,,2013-03-26 20:02:00,
2013-03-26 16:13:00,64.0,35.0,-100.00,NW,312,15.0,25.0,34,0.00,,,0.00,785.000000,,2013-03-26 20:13:00,
2013-03-26 16:23:00,64.0,35.0,-100.00,NW,312,15.0,25.0,34,0.00,,,0.00,785.000000,,2013-03-26 20:23:00,
2013-03-26 16:32:00,65.0,36.0,-100.00,NW,316,17.0,26.0,34,0.00,,,0.00,645.000000,,2013-03-26 20:32:00,
2013-03-26 16:53:00,65.0,36.0,-100.00,NW,316,17.0,26.0,34,0.00,,,0.00,645.000000,,2013-03-26 20:53:00,
2013-03-26 17:02:00,65.0,36.0,-100.00,NW,316,17.0,26.0,34,0.00,,,0.00,645.000000,,2013-03-26 21:02:00,
2013-03-26 17:13:00,65.0,36.0,-100.00,NW,316,17.0,26.0,34,0.00,,,0.00,645.000000,,2013-03-26 21:13:00,
2013-03-26 17:22:00,65.0,36.0,-100.00,NW,316,17.0,26.0,34,0.00,,,0.00,645.000000,,2013-03-26 21:22:00,
2013-03-26 17:32:00,65.0,37.0,-100.00,NW,319,19.0,28.0,36,0.00,,,0.00,468.000000,,2013-03-26 21:32:00,
2013-03-26 17:52:00,65.0,37.0,-100.00,NW,319,19.0,28.0,36,0.00,,,0.00,468.000000,,2013-03-26 21:52:00,
2013-03-26 18:02:00,65.0,37.0,-100.00,NW,319,19.0,28.0,36,0.00,,,0.00,468.000000,,2013-03-26 22:02:00,
2013-03-26 18:12:00,65.0,37.0,-100.00,NW,319,19.0,28.0,36,0.00,,,0.00,468.000000,,2013-03-26 22:12:00,
2013-03-26 18:22:00,65.0,37.0,-100.00,NW,319,19.0,28.0,36,0.00,,,0.00,468.000000,,2013-03-26 22:22:00,
2013-03-26 18:32:00,64.0,37.0,-100.00,NW,304,17.0,34.0,36,0.00,,,0.00,263.000000,,2013-03-26 22:32:00,
2013-03-26 18:53:00,64.0,37.0,-100.00,NW,304,17.0,34.0,36,0.00,,,0.00,263.000000,,2013-03-26 22:53:00,
2013-03-26 19:01:00,64.0,37.0,-100.00,NW,304,17.0,34.0,36,0.00,,,0.00,263.000000,,2013-03-26 23:01:00,
2013-03-26 19:10:00,64.0,37.0,-100.00,NW,304,17.0,34.0,36,0.00,,,0.00,263.000000,,2013-03-26 23:10:00,
2013-03-26 19:22:00,64.0,37.0,-100.00,NW,304,17.0,34.0,36,0.00,,,0.00,263.000000,,2013-03-26 23:22:00,
2013-03-26 19:32:00,59.0,37.0,-100.00,WNW,298,13.0,24.0,43,0.00,,,0.00,75.000000,,2013-03-26 23:32:00,
2013-03-26 19:53:00,59.0,37.0,-100.00,WNW,298,13.0,24.0,43,0.00,,,0.00,75.000000,,2013-03-26 23:53:00,
2013-03-26 20:02:00,59.0,37.0,-100.00,WNW,298,13.0,24.0,43,0.00,,,0.00,75.000000,,2013-03-27 00:02:00,
2013-03-26 20:12:00,59.0,37.0,-100.00,WNW,298,13.0,24.0,43,0.00,,,0.00,75.000000,,2013-03-27 00:12:00,
2013-03-26 20:22:00,59.0,37.0,-100.00,WNW,298,13.0,24.0,43,0.00,,,0.00,75.000000,,2013-03-27 00:22:00,
2013-03-26 20:32:00,54.0,35.0,-100.00,WNW,294,10.0,18.0,49,0.00,,,0.00,1.000000,,2013-03-27 00:32:00,
2013-03-26 20:52:00,54.0,35.0,-100.00,WNW,294,10.0,18.0,49,0.00,,,0.00,1.000000,,2013-03-27 00:52:00,
2013-03-26 21:02:00,54.0,35.0,-100.00,WNW,294,10.0,18.0,49,0.00,,,0.00,1.000000,,2013-03-27 01:02:00,
2013-03-26 21:12:00,54.0,35.0,-100.00,WNW,294,10.0,18.0,49,0.00,,,0.00,1.000000,,2013-03-27 01:12:00,
2013-03-26 21:23:00,54.0,35.0,-100.00,WNW,294,10.0,18.0,49,0.00,,,0.00,1.000000,,2013-03-27 01:23:00,
2013-03-26 21:32:00,52.0,35.0,-100.00,WNW,296,11.0,18.0,52,0.00,,,0.00,0.000000,,2013-03-27 01:32:00,
2013-03-26 21:53:00,52.0,35.0,-100.00,WNW,296,11.0,18.0,52,0.00,,,0.00,0.000000,,2013-03-27 01:53:00,
2013-03-26 22:03:00,52.0,35.0,-100.00,WNW,296,11.0,18.0,52,0.00,,,0.00,0.000000,,2013-03-27 02:03:00,
2013-03-26 22:12:00,52.0,35.0,-100.00,WNW,296,11.0,18.0,52,0.00,,,0.00,0.000000,,2013-03-27 02:12:00,
2013-03-26 22:22:00,52.0,35.0,-100.00,WNW,296,11.0,18.0,52,0.00,,,0.00,0.000000,,2013-03-27 02:22:00,
2013-03-26 22:32:00,50.0,37.0,-100.00,WNW,297,9.0,15.0,61,0.00,,,0.00,0.000000,,2013-03-27 02:32:00,
2013-03-26 22:53:00,50.0,37.0,-100.00,WNW,297,9.0,15.0,61,0.00,,,0.00,0.000000,,2013-03-27 02:53:00,
2013-03-26 23:02:00,50.0,37.0,-100.00,WNW,297,9.0,15.0,61,0.00,,,0.00,0.000000,,2013-03-27 03:02:00,
2013-03-26 23:12:00,50.0,37.0,-100.00,WNW,297,9.0,15.0,61,0.00,,,0.00,0.000000,,2013-03-27 03:12:00,
2013-03-26 23:22:00,50.0,37.0,-100.00,WNW,297,9.0,15.0,61,0.00,,,0.00,0.000000,,2013-03-27 03:22:00,
2013-03-26 23:32:00,48.0,37.0,-100.00,WNW,287,9.0,16.0,65,0.00,,,0.00,0.000000,,2013-03-27 03:32:00,
2013-03-26 23:53:00,48.0,37.0,-100.00,WNW,287,9.0,16.0,65,0.00,,,0.00,0.000000,,2013-03-27 03:53:00,